»·PEaware :: N872G KTEX-KLAS

N872G :: KTEX-KLAS

FLIGHT INFORMATION

Flight Status: Arrived
Operator: Privately registered:
United States
More flights under this callsign
Pilot: Gabor H. (24209)
Aircraft: CESSNA 510 CITATION MUSTANG
(C510)
More flights by this aircraft type
Origin: KTEX Telluride Regl
United States
Destination: KLAS Harry Reid Intl
United States
More flights between these airports :: More routes between these airports
Route: ETL DVC TYEGR CHOWW2
File this flight plan on PilotEdge
Remarks:
Altitude:
(Current/Filed)
32,000ft
Speed:
(Current/Filed)
340kts
Departed: 19-Feb-23 12:38 PM
Arrived: 19-Feb-23 02:04 PM
Distance/Time
Traveled:
365nm/1:26
Distance/Time
To Go:
Arrived

Flight Plot

Page will automatically refresh every two minutes.

Flight plan parsing failed; only flown route is shown


Map Options




Map Legend


Flown Route
Filed Route
Departure Airport
Arrival Airport
Navaid (VOR, NDB)
Fix

Horizontal Profiles

Position Reports

Time Latitude Longitude Heading Altitude Ground
Speed
19-Feb-23 12:29 37.954105 -107.902010 285 9074ft 0kts
19-Feb-23 12:30 37.954105 -107.902010 285 9074ft 0kts
19-Feb-23 12:31 37.954105 -107.902010 285 9074ft 0kts
19-Feb-23 12:32 37.954105 -107.902010 285 9074ft 0kts
19-Feb-23 12:33 37.953698 -107.901993 127 9074ft 5kts
19-Feb-23 12:34 37.953025 -107.899531 105 9074ft 10kts
19-Feb-23 12:35 37.952535 -107.897317 105 9074ft 1kts
19-Feb-23 12:36 37.951628 -107.898384 286 9074ft 34kts
19-Feb-23 12:37 37.960358 -107.937580 285 9998ft 164kts
19-Feb-23 12:38 37.976667 -108.003072 283 12145ft 208kts
19-Feb-23 12:39 37.994807 -108.075055 281 15080ft 201kts
19-Feb-23 12:40 38.012899 -108.146335 280 17710ft 197kts
19-Feb-23 12:41 38.030914 -108.219093 279 19790ft 206kts
19-Feb-23 12:42 38.025803 -108.294254 248 21654ft 204kts
19-Feb-23 12:43 38.003646 -108.363484 248 23331ft 205kts
19-Feb-23 12:44 37.980756 -108.432297 248 24932ft 203kts
19-Feb-23 12:45 37.958538 -108.497564 248 26282ft 202kts
19-Feb-23 12:46 37.936277 -108.562772 247 27477ft 202kts
19-Feb-23 12:47 37.913916 -108.627818 247 28542ft 201kts
19-Feb-23 12:48 37.891479 -108.692766 246 29612ft 202kts
19-Feb-23 12:49 37.868874 -108.758195 246 30552ft 206kts
19-Feb-23 12:50 37.845635 -108.825389 246 31366ft 211kts
19-Feb-23 12:51 37.821791 -108.894236 245 32082ft 217kts
19-Feb-23 12:52 37.801912 -108.969032 251 32245ft 236kts
19-Feb-23 12:53 37.784418 -109.051460 252 32242ft 249kts
19-Feb-23 12:54 37.766481 -109.137549 252 32239ft 257kts
19-Feb-23 12:55 37.748277 -109.225658 252 32236ft 262kts
19-Feb-23 12:56 37.729651 -109.315119 252 32234ft 265kts
19-Feb-23 12:57 37.710853 -109.405275 252 32230ft 263kts
19-Feb-23 12:58 37.692611 -109.492575 252 32229ft 252kts
19-Feb-23 12:59 37.674891 -109.576939 252 32228ft 247kts
19-Feb-23 13:00 37.657298 -109.660259 251 32240ft 244kts
19-Feb-23 13:01 37.639681 -109.743411 251 32244ft 246kts
19-Feb-23 13:02 37.621927 -109.827039 251 32242ft 247kts
19-Feb-23 13:03 37.604087 -109.910738 251 32240ft 248kts
19-Feb-23 13:04 37.586137 -109.994607 251 32239ft 248kts
19-Feb-23 13:05 37.568047 -110.078650 252 32240ft 249kts
19-Feb-23 13:06 37.549822 -110.163208 252 32233ft 251kts
19-Feb-23 13:07 37.531421 -110.248203 252 32229ft 251kts
19-Feb-23 13:08 37.513051 -110.333066 251 32221ft 251kts
19-Feb-23 13:09 37.494496 -110.417932 251 32220ft 252kts
19-Feb-23 13:10 37.475891 -110.502849 251 32196ft 252kts
19-Feb-23 13:11 37.457175 -110.588376 251 32164ft 253kts
19-Feb-23 13:12 37.438341 -110.673293 250 32161ft 253kts
19-Feb-23 13:13 37.419399 -110.758712 251 32159ft 255kts
19-Feb-23 13:14 37.400254 -110.844839 251 32157ft 256kts
19-Feb-23 13:15 37.381036 -110.930940 251 32155ft 257kts
19-Feb-23 13:16 37.361592 -111.017751 251 32154ft 258kts
19-Feb-23 13:17 37.342021 -111.104773 251 32152ft 259kts
19-Feb-23 13:18 37.322350 -111.191925 251 32150ft 260kts
19-Feb-23 13:19 37.302522 -111.279459 251 32149ft 261kts
19-Feb-23 13:20 37.282447 -111.367469 251 32148ft 263kts
19-Feb-23 13:21 37.262318 -111.455790 251 32147ft 264kts
19-Feb-23 13:22 37.242031 -111.544384 251 32145ft 265kts
19-Feb-23 13:23 37.221638 -111.633172 251 32144ft 265kts
19-Feb-23 13:24 37.201065 -111.722115 251 32157ft 267kts
19-Feb-23 13:25 37.177606 -111.810771 249 32155ft 269kts
19-Feb-23 13:26 37.153786 -111.899709 249 32159ft 269kts
19-Feb-23 13:27 37.129795 -111.988454 249 32167ft 269kts
19-Feb-23 13:28 37.105554 -112.077579 249 32176ft 273kts
19-Feb-23 13:29 37.080932 -112.168321 249 32174ft 276kts
19-Feb-23 13:30 37.056052 -112.259442 249 32175ft 278kts
19-Feb-23 13:31 37.031008 -112.350832 249 32180ft 278kts
19-Feb-23 13:32 37.005841 -112.442439 249 32179ft 279kts
19-Feb-23 13:33 36.980546 -112.534018 249 32179ft 279kts
19-Feb-23 13:34 36.955197 -112.625729 249 32178ft 280kts
19-Feb-23 13:35 36.929516 -112.717943 248 32189ft 281kts
19-Feb-23 13:36 36.903778 -112.810269 248 32189ft 283kts
19-Feb-23 13:37 36.877756 -112.903305 248 32194ft 285kts
19-Feb-23 13:38 36.851367 -112.997277 248 32197ft 287kts
19-Feb-23 13:39 36.824873 -113.091436 248 32193ft 289kts
19-Feb-23 13:40 36.798088 -113.186241 248 32189ft 290kts
19-Feb-23 13:41 36.771140 -113.281172 248 32192ft 291kts
19-Feb-23 13:42 36.743886 -113.376863 248 31758ft 303kts
19-Feb-23 13:43 36.714857 -113.478269 249 30062ft 316kts
19-Feb-23 13:44 36.685074 -113.582704 249 28348ft 325kts
19-Feb-23 13:45 36.654388 -113.689958 249 26564ft 332kts
19-Feb-23 13:46 36.623214 -113.798408 249 24578ft 333kts
19-Feb-23 13:47 36.592344 -113.905636 249 22583ft 323kts
19-Feb-23 13:48 36.540962 -113.995092 233 20577ft 319kts
19-Feb-23 13:49 36.486956 -114.082501 232 18891ft 320kts
19-Feb-23 13:50 36.431301 -114.171958 232 17866ft 321kts
19-Feb-23 13:51 36.378393 -114.256212 232 16854ft 304kts
19-Feb-23 13:52 36.324045 -114.341513 232 15754ft 304kts
19-Feb-23 13:53 36.271004 -114.424532 232 14182ft 296kts
19-Feb-23 13:55 36.236538 -114.518343 251 12614ft 295kts
19-Feb-23 13:56 36.211363 -114.610565 251 11264ft 275kts
19-Feb-23 13:57 36.187693 -114.697424 250 9830ft 255kts
19-Feb-23 13:58 36.164679 -114.781505 250 8458ft 250kts
19-Feb-23 13:59 36.141415 -114.866074 250 7140ft 251kts
19-Feb-23 14:00 36.136210 -114.951899 274 6155ft 250kts
19-Feb-23 14:01 36.140671 -115.033545 273 5002ft 220kts
19-Feb-23 14:02 36.140149 -115.113860 253 3351ft 212kts
19-Feb-23 14:03 36.112981 -115.148870 205 2518ft 138kts
19-Feb-23 14:04 36.089233 -115.162812 255 2183ft 12kts
19-Feb-23 14:05 36.089347 -115.163529 290 2183ft 0kts
19-Feb-23 14:06 36.088397 -115.165255 207 2183ft 17kts
19-Feb-23 14:07 36.082875 -115.168447 204 2183ft 20kts
19-Feb-23 14:08 36.080696 -115.170628 272 2183ft 0kts

Navigation Log

Ident Type
Flight plan parsing failed, navigation log unavailable